Rockenbach Airport

Jump to: basic info | weather | runways | comments

Related pages: nearby airports | nearby navaids | notams | map

Basic information (top)

Codes: LL97
Location: lon 42.338902, lat -88.084801, elev 800 ft / 244 m msl
Status: small_airport

Weather (top)

Current conditions for Waukegan Regional Airport 11nm (20km) ENE (rec'd 2014/04/24 04:52Z):

KUGN 240452Z AUTO 06005KT 10SM -RA OVC070 02/M03 A3005 RMK AO2 RAB33 SLP185 P0000 T00221028

Airport forecast for Kenosha Regional Airport 17nm (31km) NNE (rec'd 2014/04/23 00:42Z):

TAF KENW 232341Z 2400/2424 08009KT P6SM SCT060 BKN250 
     FM240400 07007KT P6SM -RA SCT050 OVC100 
     FM240600 10005KT 4SM -RA SCT035 OVC050 
     FM241100 11011KT 6SM -RA OVC035 
     FM241500 13015G23KT 5SM BR SCT020 OVC060 
     FM242000 23017G27KT 4SM SHRA OVC025 PROB30 2420/2424 3SM -TSRA BKN025 OVC050CB

Runways (top)

N/S: 2,000 x 100 ft (610 x 30 m) — grass — not lighted

Latest comments (top)

No comments yet for Rockenbach Airport

More... (top)

See also NOTAMs and nearby airports and navaids, or visit the Rockenbach Airport page at the main OurAirports website..